Time;durP1;ratioP1;P1;durP2;ratioP2;P2;SDS_P1;SDS_P2;PMS_P1;PMS_P2;Temp;Humidity;BMP_temperature;BMP_pressure;BME280_temperature;BME280_humidity;BME280_pressure;Samples;Min_cycle;Max_cycle;Signal;HPM_P1;HPM_P2
2022/08/15 00:00:36;;;;;;;12.50;11.20;;;22.30;99.90;;;;;;7393382;19;20056;-80
2022/08/15 00:03:04;;;;;;;13.98;12.48;;;22.30;99.90;;;;;;7391059;19;20018;-79
2022/08/15 00:05:33;;;;;;;13.93;12.60;;;22.30;99.90;;;;;;7391168;19;20613;-80
2022/08/15 00:08:00;;;;;;;13.75;12.30;;;22.30;99.90;;;;;;7392901;19;20014;-80
2022/08/15 00:10:26;;;;;;;13.63;12.23;;;22.20;99.90;;;;;;7391727;19;20014;-80
2022/08/15 00:12:52;;;;;;;13.80;12.25;;;22.10;99.90;;;;;;7391129;19;20053;-80
2022/08/15 00:15:19;;;;;;;13.15;11.75;;;22.10;99.90;;;;;;7393433;19;20026;-80
2022/08/15 00:17:47;;;;;;;13.25;11.85;;;22.00;99.90;;;;;;7392830;19;20017;-80
2022/08/15 00:20:13;;;;;;;13.82;12.52;;;21.90;99.90;;;;;;7391023;19;20019;-80
2022/08/15 00:22:48;;;;;;;15.88;12.07;;;21.90;99.90;;;;;;7389660;19;20015;-80
2022/08/15 00:25:16;;;;;;;13.65;12.27;;;21.90;99.90;;;;;;7391599;19;20056;-80
2022/08/15 00:27:43;;;;;;;14.50;13.00;;;21.80;99.90;;;;;;7390206;19;20015;-80
2022/08/15 00:30:10;;;;;;;15.88;12.95;;;21.70;99.90;;;;;;7392497;19;20011;-80
2022/08/15 00:32:36;;;;;;;14.73;12.70;;;21.70;99.90;;;;;;7390509;19;20014;-80
2022/08/15 00:35:35;;;;;;;15.30;13.65;;;21.70;99.90;;;;;;7389657;19;20503;-80
2022/08/15 00:37:55;;;;;;;15.65;13.82;;;21.70;99.90;;;;;;7392247;19;20014;-80
2022/08/15 00:40:25;;;;;;;17.70;14.43;;;21.70;99.90;;;;;;7390870;19;20032;-80
2022/08/15 00:42:53;;;;;;;;;;;21.60;99.90;;;;;;7390501;19;20501;-80
2022/08/15 00:45:21;;;;;;;14.93;13.40;;;21.60;99.90;;;;;;7391837;19;19911;-79
2022/08/15 00:48:41;;;;;;;15.38;13.82;;;21.70;99.90;;;;;;7391938;19;20031;-79
2022/08/15 00:50:36;;;;;;;15.45;13.85;;;21.70;99.90;;;;;;7391657;19;20475;-79
2022/08/15 00:53:06;;;;;;;15.25;13.65;;;21.70;99.90;;;;;;7390140;19;20018;-80
2022/08/15 00:55:36;;;;;;;19.00;13.43;;;21.70;99.90;;;;;;7389410;19;20352;-80
2022/08/15 00:58:02;;;;;;;14.68;13.25;;;21.70;99.90;;;;;;7391439;19;20355;-79
2022/08/15 01:00:37;;;;;;;15.15;13.55;;;21.70;99.90;;;;;;7391695;19;20047;-80
2022/08/15 01:03:08;;;;;;;15.05;13.63;;;21.60;99.90;;;;;;7387919;19;20350;-80
2022/08/15 01:05:34;;;;;;;15.75;14.20;;;21.50;99.90;;;;;;7389546;19;20017;-80
2022/08/15 01:08:02;;;;;;;15.93;14.18;;;21.50;99.90;;;;;;7389350;19;20491;-80
2022/08/15 01:10:28;;;;;;;16.48;14.88;;;21.50;99.90;;;;;;7396701;19;20015;-80
2022/08/15 01:12:54;;;;;;;17.20;15.48;;;21.50;99.90;;;;;;7398304;19;20018;-80
2022/08/15 01:15:21;;;;;;;16.42;14.93;;;21.50;99.90;;;;;;7397065;19;20443;-80
2022/08/15 01:17:47;;;;;;;17.80;16.10;;;21.50;99.90;;;;;;7398185;19;20021;-79
2022/08/15 01:20:19;;;;;;;19.48;17.13;;;21.40;99.90;;;;;;7398311;19;20428;-80
2022/08/15 01:23:16;;;;;;;18.38;16.55;;;21.40;99.90;;;;;;7395739;19;20018;-80
2022/08/15 01:25:59;;;;;;;17.80;16.02;;;21.40;99.90;;;;;;7396152;19;20412;-79
2022/08/15 01:28:26;;;;;;;;;;;21.50;99.90;;;;;;7398533;19;20027;-79
2022/08/15 01:31:02;;;;;;;18.38;15.40;;;21.40;99.90;;;;;;7398461;19;19919;-79
2022/08/15 01:33:31;;;;;;;17.98;16.17;;;21.40;99.90;;;;;;7397760;19;20036;-80
2022/08/15 01:35:59;;;;;;;17.10;15.30;;;21.30;99.90;;;;;;7396024;19;20021;-80
2022/08/15 01:38:32;;;;;;;16.67;15.07;;;21.30;99.90;;;;;;7397507;19;20340;-80
2022/08/15 01:40:58;;;;;;;16.20;14.70;;;21.30;99.90;;;;;;7397482;19;20006;-80
2022/08/15 01:43:31;;;;;;;16.70;14.95;;;21.30;99.90;;;;;;7399402;19;20494;-80
2022/08/15 01:46:02;;;;;;;17.23;14.65;;;21.30;99.90;;;;;;7397301;19;20019;-80
2022/08/15 01:48:40;;;;;;;16.23;14.52;;;21.40;99.90;;;;;;7397340;19;20475;-80
2022/08/15 01:51:10;;;;;;;16.52;14.85;;;21.30;99.90;;;;;;7397239;19;20074;-80
2022/08/15 01:54:06;;;;;;;16.95;15.35;;;21.30;99.90;;;;;;7396943;19;20007;-79
2022/08/15 01:56:42;;;;;;;17.52;15.73;;;21.30;99.90;;;;;;7396024;19;20018;-79
2022/08/15 01:59:17;;;;;;;17.98;16.08;;;21.20;99.90;;;;;;7397506;19;20104;-79
2022/08/15 02:01:54;;;;;;;18.35;16.50;;;21.20;99.90;;;;;;7396315;19;20033;-79
2022/08/15 02:04:28;;;;;;;21.02;17.10;;;21.20;99.90;;;;;;7394978;19;20011;-80
2022/08/15 02:06:59;;;;;;;19.02;17.05;;;21.10;99.90;;;;;;7395294;19;20011;-79
2022/08/15 02:09:26;;;;;;;18.70;16.77;;;21.20;99.90;;;;;;7395391;19;20078;-80
2022/08/15 02:11:54;;;;;;;19.55;17.63;;;21.20;99.90;;;;;;7396325;19;20014;-80
2022/08/15 02:14:20;;;;;;;18.88;17.08;;;21.20;99.90;;;;;;7396279;19;20014;-79
2022/08/15 02:16:47;;;;;;;19.67;17.02;;;21.20;99.90;;;;;;7395841;19;20514;-80
2022/08/15 02:19:14;;;;;;;19.65;17.65;;;21.20;99.90;;;;;;7394348;19;20010;-80
2022/08/15 02:21:44;;;;;;;18.02;16.38;;;21.20;99.90;;;;;;7393777;19;20014;-80
2022/08/15 02:24:21;;;;;;;19.77;17.90;;;21.20;99.90;;;;;;7396298;19;20043;-79
2022/08/15 02:26:49;;;;;;;19.55;17.55;;;21.10;99.90;;;;;;7395698;19;20479;-79
2022/08/15 02:29:15;;;;;;;18.98;16.95;;;21.20;99.90;;;;;;7396350;19;20037;-79
2022/08/15 02:31:41;;;;;;;19.10;17.17;;;21.10;99.90;;;;;;7395823;19;20475;-79
2022/08/15 02:34:09;;;;;;;19.20;17.25;;;21.10;99.90;;;;;;7395678;19;20084;-79
2022/08/15 02:36:37;;;;;;;19.40;17.60;;;21.10;99.90;;;;;;7395612;19;20021;-79
2022/08/15 02:39:07;;;;;;;19.13;16.60;;;21.10;99.90;;;;;;7393874;19;20006;-79
2022/08/15 02:41:38;;;;;;;19.10;17.23;;;21.00;99.90;;;;;;7397744;19;20006;-79
2022/08/15 02:44:05;;;;;;;17.33;15.73;;;21.00;99.90;;;;;;7393603;19;20006;-79
2022/08/15 02:46:31;;;;;;;19.52;17.73;;;21.10;99.90;;;;;;7395470;19;20369;-79
2022/08/15 02:48:58;;;;;;;18.63;16.65;;;21.10;99.90;;;;;;7393516;19;20021;-79
2022/08/15 02:51:26;;;;;;;19.38;17.30;;;21.10;99.90;;;;;;7394994;19;20006;-79
2022/08/15 02:53:53;;;;;;;19.95;17.90;;;21.10;99.90;;;;;;7394857;19;20015;-79
2022/08/15 02:56:23;;;;;;;20.40;17.88;;;21.10;99.90;;;;;;7394290;19;20045;-79
2022/08/15 02:58:50;;;;;;;19.85;18.02;;;21.10;99.90;;;;;;7394718;19;20371;-79
2022/08/15 03:01:18;;;;;;;19.83;17.70;;;21.10;99.90;;;;;;7394351;19;20010;-79
2022/08/15 03:03:47;;;;;;;21.13;18.95;;;21.00;99.90;;;;;;7394793;19;20022;-79
2022/08/15 03:06:15;;;;;;;19.90;17.20;;;21.10;99.90;;;;;;7394653;19;20014;-79
2022/08/15 03:08:41;;;;;;;23.13;20.42;;;21.10;99.90;;;;;;7394255;19;20014;-79
2022/08/15 03:11:09;;;;;;;20.48;18.40;;;21.10;99.90;;;;;;7392564;19;20062;-79
2022/08/15 03:13:36;;;;;;;20.55;18.45;;;21.10;99.90;;;;;;7394110;19;20018;-79
2022/08/15 03:16:04;;;;;;;20.35;18.48;;;21.10;99.90;;;;;;7394450;19;20010;-79
2022/08/15 03:18:32;;;;;;;20.98;18.88;;;21.00;99.90;;;;;;7394278;19;20015;-79
2022/08/15 03:21:00;;;;;;;21.42;19.27;;;21.00;99.90;;;;;;7393894;19;20014;-79
2022/08/15 03:23:27;;;;;;;21.52;19.52;;;20.90;99.90;;;;;;7393871;19;20011;-79
2022/08/15 03:25:59;;;;;;;22.00;19.77;;;20.90;99.90;;;;;;7392772;19;20031;-79
2022/08/15 03:28:31;;;;;;;22.77;20.45;;;20.90;99.90;;;;;;7394170;19;20015;-79
2022/08/15 03:31:00;;;;;;;21.90;19.70;;;20.80;99.90;;;;;;7393834;19;20498;-79
2022/08/15 03:33:27;;;;;;;20.92;18.45;;;20.80;99.90;;;;;;7393862;19;20051;-79
2022/08/15 03:35:54;;;;;;;21.45;19.27;;;20.80;99.90;;;;;;7392396;19;20015;-79
2022/08/15 03:38:20;;;;;;;20.70;18.50;;;20.80;99.90;;;;;;7391947;19;20411;-79
2022/08/15 03:40:48;;;;;;;20.35;18.25;;;20.70;99.90;;;;;;7396236;19;20023;-79
2022/08/15 03:43:27;;;;;;;20.77;18.63;;;20.70;99.90;;;;;;7391945;19;20021;-79
2022/08/15 03:46:02;;;;;;;21.38;19.27;;;20.60;99.90;;;;;;7393222;19;20011;-79
2022/08/15 03:48:35;;;;;;;20.25;18.35;;;20.60;99.90;;;;;;7393349;19;20094;-79
2022/08/15 03:51:03;;;;;;;21.42;19.38;;;20.50;99.90;;;;;;7393665;19;20087;-79
2022/08/15 03:53:37;;;;;;;20.25;18.30;;;20.50;99.90;;;;;;7393529;19;20038;-79
2022/08/15 03:56:05;;;;;;;20.48;18.40;;;20.50;99.90;;;;;;7392812;19;20453;-79
2022/08/15 03:58:31;;;;;;;21.08;18.98;;;20.50;99.90;;;;;;7391289;19;20077;-79
2022/08/15 04:00:58;;;;;;;22.17;19.95;;;20.50;99.90;;;;;;7391381;19;20014;-79
2022/08/15 04:03:28;;;;;;;21.70;19.50;;;20.50;99.90;;;;;;7392536;19;20007;-79
2022/08/15 04:05:57;;;;;;;20.33;18.35;;;20.50;99.90;;;;;;7392929;19;20014;-79
2022/08/15 04:08:25;;;;;;;22.52;20.25;;;20.40;99.90;;;;;;7392938;19;20014;-79
2022/08/15 04:10:53;;;;;;;21.17;19.15;;;20.50;99.90;;;;;;7392533;19;20018;-80
2022/08/15 04:13:24;;;;;;;20.83;18.80;;;20.50;99.90;;;;;;7392830;19;20077;-79
2022/08/15 04:15:55;;;;;;;21.48;19.48;;;20.40;99.90;;;;;;7392503;19;20483;-79
2022/08/15 04:18:24;;;;;;;21.05;18.92;;;20.50;99.90;;;;;;7390919;19;20010;-79
2022/08/15 04:20:51;;;;;;;21.10;19.02;;;20.50;99.90;;;;;;7392354;19;20037;-80
2022/08/15 04:23:17;;;;;;;20.27;18.25;;;20.50;99.90;;;;;;7391122;19;20383;-80
2022/08/15 04:25:43;;;;;;;20.33;18.38;;;20.50;99.90;;;;;;7391304;19;20003;-79
2022/08/15 04:28:13;;;;;;;20.33;18.30;;;20.50;99.90;;;;;;7390528;19;20011;-80
2022/08/15 04:30:42;;;;;;;21.02;18.95;;;20.40;99.90;;;;;;7392694;19;20010;-80
2022/08/15 04:33:23;;;;;;;21.85;19.65;;;20.40;99.90;;;;;;7392133;19;20025;-80
2022/08/15 04:35:59;;;;;;;20.77;18.77;;;20.40;99.90;;;;;;7390665;19;20019;-79
2022/08/15 04:38:25;;;;;;;20.08;18.02;;;20.40;99.90;;;;;;7392093;19;20007;-80
2022/08/15 04:40:51;;;;;;;20.60;18.45;;;20.40;99.90;;;;;;7391657;19;20014;-80
2022/08/15 04:43:19;;;;;;;20.10;18.05;;;20.40;99.90;;;;;;7390217;19;20082;-79
2022/08/15 04:45:45;;;;;;;20.52;18.73;;;20.30;99.90;;;;;;7399453;19;20011;-79
2022/08/15 04:48:14;;;;;;;21.63;19.35;;;20.30;99.90;;;;;;7398851;19;20014;-80
2022/08/15 04:50:42;;;;;;;22.58;20.48;;;20.20;99.90;;;;;;7399085;19;20502;-80
2022/08/15 04:53:08;;;;;;;21.17;19.20;;;20.20;99.90;;;;;;7398788;19;20081;-79
2022/08/15 04:55:35;;;;;;;22.63;20.40;;;20.20;99.90;;;;;;7398481;19;20372;-79
2022/08/15 04:58:03;;;;;;;25.08;20.45;;;20.20;99.90;;;;;;7397361;19;20024;-79
2022/08/15 05:00:31;;;;;;;21.92;19.67;;;20.10;99.90;;;;;;7398558;19;20010;-79
2022/08/15 05:03:08;;;;;;;23.33;19.90;;;20.20;99.90;;;;;;7394766;19;20006;-79
2022/08/15 05:05:40;;;;;;;22.48;19.25;;;20.20;99.90;;;;;;7398546;19;20048;-79
2022/08/15 05:08:06;;;;;;;22.77;20.30;;;20.20;99.90;;;;;;7398754;19;20483;-80
2022/08/15 05:10:32;;;;;;;22.27;20.17;;;20.30;99.90;;;;;;7396922;19;20014;-80
2022/08/15 05:13:09;;;;;;;21.80;19.70;;;20.30;99.90;;;;;;7396935;19;20011;-80
2022/08/15 05:15:35;;;;;;;23.10;20.23;;;20.40;99.90;;;;;;7398205;19;20066;-80
2022/08/15 05:18:01;;;;;;;23.13;20.70;;;20.50;99.90;;;;;;7398451;19;20032;-79
2022/08/15 05:20:27;;;;;;;22.63;20.30;;;20.60;99.90;;;;;;7397951;19;20452;-79
2022/08/15 05:23:03;;;;;;;24.05;20.30;;;20.60;99.90;;;;;;7395981;19;20163;-79
2022/08/15 05:25:31;;;;;;;22.60;20.40;;;20.70;99.90;;;;;;7396432;19;20674;-80
2022/08/15 05:27:57;;;;;;;21.77;19.70;;;20.70;99.90;;;;;;7396249;19;20356;-79
2022/08/15 05:30:23;;;;;;;22.45;20.15;;;20.80;99.90;;;;;;7396486;19;20011;-79
2022/08/15 05:33:05;;;;;;;23.17;20.83;;;20.90;99.90;;;;;;7398346;19;20074;-79
2022/08/15 05:35:31;;;;;;;22.80;20.40;;;20.90;99.90;;;;;;7394484;19;20022;-79
2022/08/15 05:37:59;;;;;;;23.48;21.25;;;20.90;99.90;;;;;;7395747;19;20520;-79
2022/08/15 05:40:28;;;;;;;23.08;20.80;;;20.90;99.90;;;;;;7397373;19;20016;-79
2022/08/15 05:43:11;;;;;;;24.45;22.10;;;20.90;99.90;;;;;;7395331;19;20378;-80
2022/08/15 05:45:46;;;;;;;24.48;21.90;;;20.90;99.90;;;;;;7397644;19;20011;-80
2022/08/15 05:48:18;;;;;;;23.77;21.45;;;21.00;99.90;;;;;;7395982;19;20041;-79
2022/08/15 05:50:49;;;;;;;22.73;20.52;;;21.00;99.90;;;;;;7397080;19;20094;-80
2022/08/15 05:53:37;;;;;;;24.13;21.73;;;21.00;99.90;;;;;;7396980;19;20022;-79
2022/08/15 05:56:22;;;;;;;25.65;21.33;;;21.10;99.90;;;;;;7393679;19;20015;-79
2022/08/15 05:58:59;;;;;;;22.25;19.98;;;21.10;99.90;;;;;;7396679;19;20018;-79
2022/08/15 06:01:31;;;;;;;24.60;22.23;;;21.10;99.90;;;;;;7394942;19;20028;-80
2022/08/15 06:04:07;;;;;;;24.75;22.15;;;21.20;99.90;;;;;;7396396;19;20020;-80
2022/08/15 06:06:38;;;;;;;23.63;21.23;;;21.20;99.90;;;;;;7396785;19;20031;-79
2022/08/15 06:09:22;;;;;;;23.60;21.13;;;21.30;99.90;;;;;;7396377;19;20020;-79
2022/08/15 06:11:53;;;;;;;24.25;21.88;;;21.40;99.90;;;;;;7396273;19;20011;-79
2022/08/15 06:14:27;;;;;;;24.60;22.27;;;21.50;99.90;;;;;;7394691;19;20014;-79
2022/08/15 06:17:00;;;;;;;22.92;20.52;;;21.60;99.90;;;;;;7395067;19;20019;-79
2022/08/15 06:19:33;;;;;;;23.63;20.30;;;21.70;99.90;;;;;;7394606;19;20038;-79
2022/08/15 06:22:00;;;;;;;23.65;21.52;;;21.80;99.90;;;;;;7394968;19;20070;-79
2022/08/15 06:25:02;;;;;;;22.42;20.13;;;21.90;99.90;;;;;;7395674;19;20017;-79
2022/08/15 06:27:59;;;;;;;22.38;19.70;;;22.10;99.90;;;;;;7391562;19;20522;-79
2022/08/15 06:30:37;;;;;;;21.10;18.88;;;22.30;99.90;;;;;;7395515;19;20010;-79
2022/08/15 06:33:43;;;;;;;22.15;19.95;;;22.50;99.90;;;;;;7395640;19;20095;-79
2022/08/15 06:36:23;;;;;;;21.48;19.50;;;22.80;99.90;;;;;;7393654;19;20031;-79
2022/08/15 06:39:06;;;;;;;21.92;19.70;;;22.90;99.90;;;;;;7396167;19;20029;-79
2022/08/15 06:42:04;;;;;;;21.30;19.20;;;23.00;99.90;;;;;;7394525;19;20014;-79
2022/08/15 06:44:32;;;;;;;22.02;19.67;;;23.00;99.90;;;;;;7395174;19;20015;-79
2022/08/15 06:47:09;;;;;;;21.20;19.02;;;22.90;99.90;;;;;;7393643;19;20026;-79
2022/08/15 06:49:40;;;;;;;20.98;18.77;;;22.80;99.90;;;;;;7395083;19;20031;-79
2022/08/15 06:52:07;;;;;;;20.52;18.20;;;22.80;99.90;;;;;;7394864;19;20015;-79
2022/08/15 06:54:35;;;;;;;21.83;19.48;;;22.80;99.90;;;;;;7393358;19;20123;-79
2022/08/15 06:57:13;;;;;;;20.55;18.55;;;22.80;99.90;;;;;;7392968;19;20018;-79
2022/08/15 07:00:01;;;;;;;20.20;18.15;;;22.80;99.90;;;;;;7395059;19;20070;-79
2022/08/15 07:02:52;;;;;;;18.25;16.30;;;22.80;99.90;;;;;;7393306;19;20010;-79
2022/08/15 07:05:22;;;;;;;18.38;16.55;;;22.90;99.90;;;;;;7394701;19;20031;-79
2022/08/15 07:07:54;;;;;;;18.05;16.38;;;22.90;99.90;;;;;;7393166;19;20007;-79
2022/08/15 07:10:29;;;;;;;17.60;15.48;;;23.00;99.90;;;;;;7394226;19;20010;-79
2022/08/15 07:13:08;;;;;;;17.10;15.30;;;23.10;99.90;;;;;;7394291;19;20014;-79
2022/08/15 07:15:45;;;;;;;18.42;16.23;;;23.10;99.90;;;;;;7394768;19;20130;-79
2022/08/15 07:18:34;;;;;;;19.00;15.57;;;23.20;99.90;;;;;;7394147;19;20011;-79
2022/08/15 07:21:22;;;;;;;16.83;15.25;;;23.20;99.90;;;;;;7394012;19;20014;-79
2022/08/15 07:24:09;;;;;;;16.42;14.93;;;23.20;99.90;;;;;;7393876;19;20006;-80
2022/08/15 07:27:01;;;;;;;16.10;14.38;;;23.30;99.90;;;;;;7392213;19;20010;-79
2022/08/15 07:29:30;;;;;;;16.75;15.15;;;23.30;99.90;;;;;;7391698;19;20112;-79
2022/08/15 07:32:14;;;;;;;15.82;14.18;;;23.40;99.90;;;;;;7393966;19;20471;-80
2022/08/15 07:34:58;;;;;;;15.38;13.77;;;23.40;99.90;;;;;;7393381;19;20034;-79
2022/08/15 07:37:28;;;;;;;16.33;14.75;;;23.50;99.90;;;;;;7391776;19;20475;-80
2022/08/15 07:40:26;;;;;;;18.83;14.15;;;23.60;99.90;;;;;;7397310;19;20017;-80
2022/08/15 07:42:52;;;;;;;15.15;13.38;;;23.70;99.90;;;;;;7390964;19;20037;-80
2022/08/15 07:45:36;;;;;;;13.90;12.50;;;24.00;99.90;;;;;;7392215;19;20029;-80
2022/08/15 07:48:04;;;;;;;16.98;12.88;;;24.50;99.90;;;;;;7393016;19;20354;-80
2022/08/15 07:50:30;;;;;;;12.52;11.32;;;25.60;99.90;;;;;;7394029;19;20074;-80
2022/08/15 07:53:04;;;;;;;12.95;11.68;;;26.40;99.90;;;;;;7391568;19;20436;-80
2022/08/15 07:55:31;;;;;;;13.70;11.05;;;27.10;99.90;;;;;;7392879;19;20011;-80
2022/08/15 07:58:02;;;;;;;13.48;11.50;;;27.40;99.90;;;;;;7391496;19;20362;-80
2022/08/15 08:00:30;;;;;;;12.00;10.30;;;27.40;99.90;;;;;;7393295;19;20014;-80
2022/08/15 08:03:09;;;;;;;12.90;10.68;;;27.20;99.90;;;;;;7390038;19;20467;-80
2022/08/15 08:05:56;;;;;;;11.65;10.13;;;27.10;99.90;;;;;;7393119;19;20011;-80
2022/08/15 08:08:32;;;;;;;11.88;10.68;;;26.70;99.90;;;;;;7392468;19;20019;-80
2022/08/15 08:11:08;;;;;;;12.45;9.70;;;26.50;99.90;;;;;;7392858;19;20051;-80
2022/08/15 08:14:06;;;;;;;11.82;10.20;;;27.10;99.90;;;;;;7392459;19;20471;-81
2022/08/15 08:16:44;;;;;;;10.40;9.18;;;27.30;99.90;;;;;;7390787;19;20011;-79
2022/08/15 08:19:24;;;;;;;11.30;9.63;;;26.90;99.90;;;;;;7395082;19;20031;-80
2022/08/15 08:22:08;;;;;;;11.05;9.95;;;27.30;99.90;;;;;;7399315;19;20010;-80
2022/08/15 08:24:49;;;;;;;9.50;8.60;;;27.80;99.90;;;;;;7399566;19;20014;-80
2022/08/15 08:27:15;;;;;;;9.90;8.57;;;28.20;99.90;;;;;;7397785;19;20506;-80
2022/08/15 08:29:49;;;;;;;8.73;7.90;;;28.50;99.90;;;;;;7399732;19;20014;-80
2022/08/15 08:32:49;;;;;;;8.57;7.70;;;28.90;99.90;;;;;;7399785;19;20017;-80
2022/08/15 08:35:28;;;;;;;8.00;7.25;;;28.80;99.90;;;;;;7398426;19;20083;-80
2022/08/15 08:38:11;;;;;;;8.05;7.22;;;28.70;99.40;;;;;;7399443;19;20026;-80
2022/08/15 08:41:29;;;;;;;7.25;6.38;;;28.20;99.50;;;;;;7398224;19;20007;-79
2022/08/15 08:44:06;;;;;;;8.60;6.78;;;28.00;99.70;;;;;;7399786;19;20031;-79
2022/08/15 08:47:10;;;;;;;7.03;6.35;;;27.80;99.40;;;;;;7399046;19;20038;-79
2022/08/15 08:49:39;;;;;;;8.05;5.90;;;27.90;99.90;;;;;;7399485;19;20047;-79
2022/08/15 08:52:15;;;;;;;7.60;6.38;;;27.80;99.70;;;;;;7399037;19;20011;-79
2022/08/15 08:54:57;;;;;;;7.60;6.03;;;27.70;99.80;;;;;;7398920;19;20074;-80
2022/08/15 08:57:28;;;;;;;6.57;5.90;;;27.50;99.90;;;;;;7399095;19;20015;-80
2022/08/15 09:00:13;;;;;;;8.88;5.65;;;27.30;99.90;;;;;;7399222;19;20329;-80
2022/08/15 09:02:45;;;;;;;6.65;6.05;;;27.20;99.90;;;;;;7397113;19;20011;-79
2022/08/15 09:05:52;;;;;;;6.20;5.43;;;27.20;99.90;;;;;;7398423;19;20035;-79
2022/08/15 09:08:24;;;;;;;6.95;5.53;;;27.20;99.90;;;;;;7398194;19;20476;-80
2022/08/15 09:10:54;;;;;;;6.57;5.90;;;27.20;99.90;;;;;;7398041;19;20019;-80
2022/08/15 09:13:33;;;;;;;5.82;5.32;;;27.30;99.90;;;;;;7398524;19;20081;-79
2022/08/15 09:16:21;;;;;;;6.82;4.72;;;27.60;99.90;;;;;;7397124;19;20121;-79
2022/08/15 09:19:19;;;;;;;6.45;4.65;;;27.70;99.90;;;;;;7397038;19;20018;-79
2022/08/15 09:21:46;;;;;;;5.32;4.70;;;28.00;99.30;;;;;;7397531;19;20031;-79
2022/08/15 09:24:14;;;;;;;6.63;4.85;;;28.20;99.10;;;;;;7397930;19;20417;-79
2022/08/15 09:26:49;;;;;;;4.97;4.47;;;28.40;98.50;;;;;;7395428;19;20021;-79
2022/08/15 09:29:37;;;;;;;6.78;5.07;;;28.40;97.80;;;;;;7397254;19;20009;-79
2022/08/15 09:32:11;;;;;;;6.25;4.68;;;28.50;98.20;;;;;;7397570;19;20048;-79
2022/08/15 09:34:44;;;;;;;6.05;4.97;;;28.50;97.70;;;;;;7395533;19;20021;-78
2022/08/15 09:37:38;;;;;;;5.88;5.18;;;28.60;97.20;;;;;;7397412;19;20009;-80
2022/08/15 09:40:12;;;;;;;6.50;5.20;;;28.90;97.50;;;;;;7401894;19;20429;-79
2022/08/15 09:42:56;;;;;;;6.55;4.90;;;29.30;97.50;;;;;;7395724;19;20014;-79
2022/08/15 09:45:47;;;;;;;5.22;4.57;;;29.60;96.60;;;;;;7397510;19;20070;-79
2022/08/15 09:48:41;;;;;;;6.30;5.07;;;29.80;96.50;;;;;;7397111;19;20011;-79
2022/08/15 09:51:34;;;;;;;5.88;5.35;;;29.80;96.60;;;;;;7397240;19;20034;-79
2022/08/15 09:54:15;;;;;;;6.72;5.00;;;29.70;96.60;;;;;;7396864;19;20011;-78
2022/08/15 09:56:41;;;;;;;6.50;4.93;;;29.70;95.60;;;;;;7396397;19;20010;-79
2022/08/15 09:59:19;;;;;;;5.40;4.90;;;29.60;95.80;;;;;;7396685;19;20019;-79
2022/08/15 10:02:00;;;;;;;5.68;5.00;;;29.70;95.20;;;;;;7396465;19;20502;-79
2022/08/15 10:05:10;;;;;;;5.45;4.80;;;29.80;95.20;;;;;;7397030;19;20022;-79
2022/08/15 10:07:56;;;;;;;8.88;5.15;;;29.90;95.50;;;;;;7392605;19;20372;-79
2022/08/15 10:10:53;;;;;;;5.35;4.88;;;30.00;95.50;;;;;;7396093;19;20017;-79
2022/08/15 10:14:01;;;;;;;5.93;5.10;;;29.90;95.30;;;;;;7395610;19;20351;-79
2022/08/15 10:16:52;;;;;;;6.78;5.00;;;30.10;95.20;;;;;;7394435;19;20031;-79
2022/08/15 10:19:27;;;;;;;6.43;4.57;;;30.50;95.10;;;;;;7396585;19;20102;-79
2022/08/15 10:21:55;;;;;;;5.40;4.90;;;30.50;95.00;;;;;;7395260;19;20014;-79
2022/08/15 10:24:23;;;;;;;5.63;5.10;;;30.40;94.70;;;;;;7394365;19;20017;-79
2022/08/15 10:27:20;;;;;;;6.00;5.10;;;30.30;95.00;;;;;;7393725;19;20018;-79
2022/08/15 10:29:51;;;;;;;6.05;5.43;;;30.30;95.30;;;;;;7394155;19;20010;-79
2022/08/15 10:32:24;;;;;;;5.47;4.95;;;30.40;95.60;;;;;;7395693;19;20021;-79
2022/08/15 10:34:56;;;;;;;7.93;5.15;;;30.20;95.50;;;;;;7395417;19;20020;-79
2022/08/15 10:37:33;;;;;;;6.30;5.78;;;30.00;95.50;;;;;;7395690;19;20007;-79
2022/08/15 10:40:37;;;;;;;5.75;5.15;;;29.80;96.30;;;;;;7400194;19;20110;-80
2022/08/15 10:43:40;;;;;;;5.90;5.40;;;29.80;95.80;;;;;;7392051;19;20014;-79
2022/08/15 10:46:44;;;;;;;6.53;5.40;;;29.70;95.70;;;;;;7395391;19;20015;-79
2022/08/15 10:49:13;;;;;;;6.60;5.45;;;29.70;96.20;;;;;;7395232;19;20507;-79
2022/08/15 10:52:10;;;;;;;6.45;5.68;;;29.70;95.80;;;;;;7394979;19;20014;-79
2022/08/15 10:55:01;;;;;;;8.27;5.50;;;29.70;96.20;;;;;;7393206;19;20015;-79
2022/08/15 10:57:36;;;;;;;6.93;5.80;;;29.50;95.70;;;;;;7394484;19;20025;-80
2022/08/15 11:00:05;;;;;;;6.40;5.82;;;29.50;95.80;;;;;;7393251;19;20014;-79
2022/08/15 11:02:38;;;;;;;7.63;5.85;;;29.40;95.80;;;;;;7394053;19;20035;-80
2022/08/15 11:05:10;;;;;;;6.53;5.93;;;29.40;95.90;;;;;;7395053;19;20021;-79
2022/08/15 11:07:40;;;;;;;6.13;5.53;;;29.40;95.80;;;;;;7393096;19;20521;-79
2022/08/15 11:10:12;;;;;;;6.40;5.80;;;29.50;95.80;;;;;;7394223;19;20034;-80
2022/08/15 11:12:46;;;;;;;6.53;5.90;;;29.60;95.40;;;;;;7394329;19;20021;-79
2022/08/15 11:15:23;;;;;;;6.72;5.97;;;29.60;95.50;;;;;;7394305;19;20066;-80
2022/08/15 11:18:08;;;;;;;6.22;5.63;;;29.70;95.80;;;;;;7394529;19;20025;-80
2022/08/15 11:20:41;;;;;;;5.85;5.25;;;29.70;94.90;;;;;;7394302;19;20043;-79
2022/08/15 11:23:07;;;;;;;6.57;5.90;;;29.80;94.90;;;;;;7392565;19;20015;-79
2022/08/15 11:25:41;;;;;;;5.80;5.30;;;29.80;95.10;;;;;;7391177;19;20015;-80
2022/08/15 11:28:10;;;;;;;6.30;5.70;;;30.00;95.30;;;;;;7394080;19;20448;-79
2022/08/15 11:30:39;;;;;;;6.25;5.35;;;30.10;95.30;;;;;;7393816;19;20021;-80
2022/08/15 11:33:25;;;;;;;8.55;5.60;;;30.20;94.80;;;;;;7393530;19;20026;-79
2022/08/15 11:36:15;;;;;;;6.03;5.43;;;30.30;95.50;;;;;;7392468;19;20031;-79
2022/08/15 11:38:49;;;;;;;6.50;5.90;;;30.40;94.90;;;;;;7395694;19;20006;-79
2022/08/15 11:41:27;;;;;;;6.03;5.35;;;30.40;94.60;;;;;;7393277;19;20033;-79
2022/08/15 11:43:58;;;;;;;6.28;5.78;;;30.40;94.00;;;;;;7393987;19;20025;-80
2022/08/15 11:46:25;;;;;;;5.57;5.07;;;30.20;94.60;;;;;;7393445;19;20017;-79
2022/08/15 11:49:27;;;;;;;5.65;4.80;;;30.20;93.90;;;;;;7393314;19;20055;-79
2022/08/15 11:52:01;;;;;;;5.85;5.25;;;30.20;93.50;;;;;;7391710;19;20007;-80
2022/08/15 11:54:27;;;;;;;6.43;5.80;;;30.20;94.50;;;;;;7393661;19;20381;-80
2022/08/15 11:57:00;;;;;;;6.40;5.82;;;30.10;95.10;;;;;;7392769;19;20011;-79
2022/08/15 11:59:40;;;;;;;6.03;5.43;;;29.90;95.30;;;;;;7393138;19;20518;-79
2022/08/15 12:02:17;;;;;;;6.45;5.85;;;29.80;95.50;;;;;;7392257;19;20014;-79
2022/08/15 12:04:45;;;;;;;7.90;7.10;;;29.70;95.70;;;;;;7393013;19;20513;-80
2022/08/15 12:07:27;;;;;;;7.50;6.80;;;29.70;95.70;;;;;;7392921;19;20014;-80
2022/08/15 12:10:00;;;;;;;6.25;5.75;;;29.70;95.90;;;;;;7393122;19;20017;-80
2022/08/15 12:12:28;;;;;;;6.85;6.25;;;29.60;95.80;;;;;;7392630;19;20010;-79
2022/08/15 12:15:06;;;;;;;6.70;6.10;;;29.60;95.80;;;;;;7392379;19;20010;-80
2022/08/15 12:17:33;;;;;;;7.70;6.50;;;29.70;95.80;;;;;;7392485;19;20010;-80
2022/08/15 12:19:59;;;;;;;7.05;6.30;;;29.70;95.70;;;;;;7392827;19;20479;-79
2022/08/15 12:22:29;;;;;;;6.80;6.20;;;29.70;95.70;;;;;;7391532;19;20010;-80
2022/08/15 12:24:56;;;;;;;6.47;5.80;;;29.70;95.80;;;;;;7392379;19;20045;-79
2022/08/15 12:27:22;;;;;;;8.57;6.63;;;29.80;95.70;;;;;;7391999;19;20015;-79
2022/08/15 12:29:48;;;;;;;8.48;7.45;;;30.10;96.00;;;;;;7392171;19;20013;-79
2022/08/15 12:32:14;;;;;;;7.93;7.22;;;30.20;95.60;;;;;;7391243;19;20029;-80
2022/08/15 12:34:44;;;;;;;7.35;6.65;;;30.40;95.30;;;;;;7391783;19;20479;-80
2022/08/15 12:37:13;;;;;;;7.57;6.88;;;30.40;95.40;;;;;;7392916;19;20014;-79
2022/08/15 12:39:42;;;;;;;10.90;9.45;;;30.10;95.30;;;;;;7394930;19;20034;-80
2022/08/15 12:42:22;;;;;;;7.80;7.00;;;30.00;95.50;;;;;;7391021;19;20030;-80
2022/08/15 12:44:51;;;;;;;8.07;7.35;;;30.00;95.70;;;;;;7390364;19;20018;-79
2022/08/15 12:47:18;;;;;;;9.80;7.03;;;29.90;95.70;;;;;;7392399;19;20010;-80
2022/08/15 12:49:44;;;;;;;8.40;7.63;;;29.70;96.10;;;;;;7391793;19;20002;-79
2022/08/15 12:52:11;;;;;;;8.32;7.53;;;29.70;96.00;;;;;;7389931;19;20018;-79
2022/08/15 12:54:37;;;;;;;8.38;6.93;;;29.60;96.00;;;;;;7391548;19;20014;-80
2022/08/15 12:57:03;;;;;;;10.70;8.45;;;29.70;96.00;;;;;;7391260;19;20006;-80
2022/08/15 12:59:31;;;;;;;10.55;8.52;;;29.70;95.90;;;;;;7391765;19;20006;-80
2022/08/15 13:01:57;;;;;;;9.13;8.32;;;29.70;96.00;;;;;;7391157;19;20011;-80
2022/08/15 13:04:25;;;;;;;9.95;8.95;;;29.80;96.00;;;;;;7390231;19;20014;-79
2022/08/15 13:06:57;;;;;;;8.93;8.00;;;29.80;96.00;;;;;;7398806;19;20010;-80
2022/08/15 13:09:27;;;;;;;10.77;9.38;;;30.00;95.90;;;;;;7398702;19;20006;-80
2022/08/15 13:11:54;;;;;;;10.35;8.00;;;30.10;95.80;;;;;;7398084;19;20022;-80